Time;durP1;ratioP1;P1;durP2;ratioP2;P2;SDS_P1;SDS_P2;PMS_P1;PMS_P2;Temp;Humidity;BMP_temperature;BMP_pressure;BME280_temperature;BME280_humidity;BME280_pressure;Samples;Min_cycle;Max_cycle;Signal;HPM_P1;HPM_P2
2022/08/23 00:01:06;;;;;;;3.17;2.97;;;16.70;99.90;;;;;;5083211;28;20659;-81
2022/08/23 00:03:32;;;;;;;3.63;2.90;;;16.70;99.90;;;;;;5084213;28;20636;-81
2022/08/23 00:05:59;;;;;;;3.47;2.50;;;16.60;99.90;;;;;;5080263;28;20988;-81
2022/08/23 00:08:26;;;;;;;4.13;2.60;;;16.60;99.90;;;;;;5078579;28;20652;-81
2022/08/23 00:10:54;;;;;;;3.00;2.80;;;16.60;99.90;;;;;;5078298;28;20688;-81
2022/08/23 00:13:21;;;;;;;2.77;2.50;;;16.50;99.90;;;;;;5080008;28;20623;-81
2022/08/23 00:15:49;;;;;;;3.20;2.90;;;16.50;99.90;;;;;;5084365;28;20637;-81
2022/08/23 00:18:15;;;;;;;2.37;2.27;;;16.40;99.90;;;;;;5082631;28;21181;-80
2022/08/23 00:20:43;;;;;;;4.67;2.70;;;16.40;99.90;;;;;;5082633;28;21008;-81
2022/08/23 00:23:10;;;;;;;3.40;3.10;;;16.40;99.90;;;;;;5081322;28;20632;-81
2022/08/23 00:25:37;;;;;;;3.20;2.60;;;16.30;99.90;;;;;;5081299;28;20628;-81
2022/08/23 00:28:07;;;;;;;3.50;3.20;;;16.40;99.90;;;;;;5084059;28;20625;-81
2022/08/23 00:30:37;;;;;;;3.27;2.77;;;16.30;99.90;;;;;;5084027;28;21264;-81
2022/08/23 00:33:04;;;;;;;3.50;3.20;;;16.30;99.90;;;;;;5081030;28;20629;-81
2022/08/23 00:35:31;;;;;;;3.07;2.87;;;16.30;99.90;;;;;;5080628;28;20626;-81
2022/08/23 00:37:58;;;;;;;3.73;2.60;;;16.20;99.90;;;;;;5082900;28;20994;-81
2022/08/23 00:40:24;;;;;;;2.87;2.63;;;16.20;99.90;;;;;;5080875;28;20656;-81
2022/08/23 00:48:34;;;;;;;4.37;2.50;;;16.10;99.90;;;;;;5080952;28;20714;-79
2022/08/23 00:51:05;;;;;;;3.80;2.20;;;16.10;99.90;;;;;;5083312;28;20677;-79
2022/08/23 00:53:36;;;;;;;3.33;2.70;;;16.10;99.90;;;;;;5082246;28;20632;-80
2022/08/23 00:56:07;;;;;;;4.20;2.83;;;16.10;99.90;;;;;;5083732;28;20616;-80
2022/08/23 00:58:34;;;;;;;6.33;3.00;;;16.00;99.90;;;;;;5082126;28;20616;-79
2022/08/23 01:01:04;;;;;;;3.30;2.90;;;16.00;99.90;;;;;;5081433;28;20652;-81
2022/08/23 01:03:33;;;;;;;2.40;2.30;;;16.00;99.90;;;;;;5082889;28;20627;-81
2022/08/23 01:06:06;;;;;;;4.70;2.40;;;16.00;99.90;;;;;;5081321;28;20620;-80
2022/08/23 01:08:34;;;;;;;3.90;2.90;;;15.90;99.90;;;;;;5085020;28;20684;-80
2022/08/23 01:11:06;;;;;;;3.23;2.97;;;15.90;99.90;;;;;;5081078;28;20677;-80
2022/08/23 01:13:39;;;;;;;2.33;2.13;;;16.00;99.90;;;;;;5081721;28;20631;-79
2022/08/23 01:16:10;;;;;;;4.80;2.67;;;15.90;99.90;;;;;;5082204;28;20628;-79
2022/08/23 01:18:39;;;;;;;5.30;2.83;;;16.00;99.90;;;;;;5079678;28;20632;-80
2022/08/23 01:21:12;;;;;;;2.83;2.60;;;15.90;99.90;;;;;;5082545;28;20679;-80
2022/08/23 01:23:43;;;;;;;3.07;2.50;;;15.80;99.90;;;;;;5081120;28;20670;-80
2022/08/23 01:26:11;;;;;;;5.57;2.73;;;15.80;99.90;;;;;;5081034;28;20987;-80
2022/08/23 01:28:39;;;;;;;3.80;2.70;;;15.90;99.90;;;;;;5081946;28;20623;-80
2022/08/23 01:31:07;;;;;;;3.97;3.10;;;15.80;99.90;;;;;;5081031;28;20756;-80
2022/08/23 01:33:34;;;;;;;3.80;3.50;;;15.80;99.90;;;;;;5083253;28;20647;-80
2022/08/23 01:36:02;;;;;;;7.03;3.27;;;15.70;99.90;;;;;;5084284;28;20628;-79
2022/08/23 01:38:29;;;;;;;3.50;3.20;;;15.70;99.90;;;;;;5082517;28;20635;-79
2022/08/23 01:40:58;;;;;;;5.67;4.07;;;15.70;99.90;;;;;;5080026;28;20990;-79
2022/08/23 01:43:25;;;;;;;3.03;2.83;;;15.70;99.90;;;;;;5083445;28;20634;-82
2022/08/23 01:45:53;;;;;;;2.63;2.43;;;15.70;99.90;;;;;;5079826;28;20621;-79
2022/08/23 01:48:21;;;;;;;3.93;3.27;;;15.60;99.90;;;;;;5085043;28;20628;-79
2022/08/23 01:50:48;;;;;;;3.17;2.97;;;15.60;99.90;;;;;;5080354;28;20672;-81
2022/08/23 01:53:16;;;;;;;4.20;3.20;;;15.60;99.90;;;;;;5082660;28;20627;-81
2022/08/23 01:55:43;;;;;;;4.47;2.80;;;15.60;99.90;;;;;;5080711;28;20711;-81
2022/08/23 01:58:12;;;;;;;2.90;2.60;;;15.60;99.90;;;;;;5078972;28;20639;-81
2022/08/23 02:00:43;;;;;;;3.37;3.07;;;15.50;99.90;;;;;;5081108;28;20648;-79
2022/08/23 02:03:11;;;;;;;3.27;2.97;;;15.50;99.90;;;;;;5082135;28;20660;-79
2022/08/23 02:05:39;;;;;;;6.00;2.90;;;15.50;99.90;;;;;;5079166;28;21076;-79
2022/08/23 02:10:47;;;;;;;2.57;2.30;;;15.40;99.90;;;;;;5078402;28;20672;-80
2022/08/23 02:13:15;;;;;;;4.20;3.37;;;15.30;99.90;;;;;;5083479;28;20642;-80
2022/08/23 02:15:43;;;;;;;3.27;2.90;;;15.40;99.90;;;;;;5079184;28;20620;-80
2022/08/23 02:18:11;;;;;;;2.80;2.60;;;15.40;99.90;;;;;;5081492;28;21286;-80
2022/08/23 02:20:39;;;;;;;3.00;2.63;;;15.30;99.90;;;;;;5082108;28;21198;-79
2022/08/23 02:23:06;;;;;;;3.47;2.83;;;15.30;99.90;;;;;;5082696;28;20640;-79
2022/08/23 02:25:32;;;;;;;4.87;3.10;;;15.30;99.90;;;;;;5079634;28;20639;-79
2022/08/23 02:27:59;;;;;;;5.20;3.20;;;15.30;99.90;;;;;;5081183;28;20629;-79
2022/08/23 02:30:27;;;;;;;2.60;2.50;;;15.30;99.90;;;;;;5084845;28;20669;-78
2022/08/23 02:32:54;;;;;;;3.73;3.10;;;15.20;99.90;;;;;;5083860;28;20625;-80
2022/08/23 02:35:21;;;;;;;3.47;3.17;;;15.20;99.90;;;;;;5086868;28;20731;-78
2022/08/23 02:37:48;;;;;;;2.90;2.70;;;15.20;99.90;;;;;;5085879;28;20691;-81
2022/08/23 02:40:15;;;;;;;2.93;2.63;;;15.10;99.90;;;;;;5084149;28;21222;-80
2022/08/23 02:42:42;;;;;;;3.13;2.93;;;15.10;99.90;;;;;;5086568;28;20632;-80
2022/08/23 02:45:10;;;;;;;3.33;2.90;;;15.10;99.90;;;;;;5084585;28;20628;-79
2022/08/23 02:47:38;;;;;;;5.70;3.03;;;15.10;99.90;;;;;;5084723;28;20636;-79
2022/08/23 02:50:07;;;;;;;2.90;2.70;;;15.20;99.90;;;;;;5085745;28;20674;-81
2022/08/23 02:52:34;;;;;;;4.60;3.27;;;15.20;99.90;;;;;;5083456;28;20631;-81
2022/08/23 02:55:01;;;;;;;3.40;3.10;;;15.20;99.90;;;;;;5084892;28;20640;-80
2022/08/23 02:57:28;;;;;;;4.30;3.43;;;15.10;99.90;;;;;;5085381;28;20643;-80
2022/08/23 02:59:54;;;;;;;2.87;2.57;;;15.20;99.90;;;;;;5079723;28;20655;-80
2022/08/23 03:02:21;;;;;;;4.47;3.13;;;15.10;99.90;;;;;;5084267;28;20625;-80
2022/08/23 03:04:50;;;;;;;3.20;3.00;;;15.00;99.90;;;;;;5083037;28;20629;-80
2022/08/23 03:07:17;;;;;;;3.40;3.10;;;15.00;99.90;;;;;;5085463;28;20631;-81
2022/08/23 03:09:43;;;;;;;5.77;4.10;;;15.00;99.90;;;;;;5083616;28;20684;-81
2022/08/23 03:12:10;;;;;;;3.80;3.50;;;15.00;99.90;;;;;;5081342;28;20635;-80
2022/08/23 03:14:37;;;;;;;3.70;3.40;;;14.90;99.90;;;;;;5084257;28;20628;-80
2022/08/23 03:17:05;;;;;;;3.70;3.40;;;14.80;99.90;;;;;;5085211;28;21174;-80
2022/08/23 03:19:32;;;;;;;3.80;3.50;;;14.90;99.90;;;;;;5083761;28;20663;-80
2022/08/23 03:22:00;;;;;;;3.80;3.13;;;14.90;99.90;;;;;;5085596;28;20635;-80
2022/08/23 03:24:27;;;;;;;6.03;3.20;;;14.80;99.90;;;;;;5086683;28;21216;-80
2022/08/23 03:26:54;;;;;;;3.20;3.00;;;14.70;99.90;;;;;;5081961;28;20628;-80
2022/08/23 03:29:21;;;;;;;3.93;3.63;;;14.70;99.90;;;;;;5083422;28;20781;-80
2022/08/23 03:31:50;;;;;;;3.50;3.30;;;14.70;99.90;;;;;;5080588;28;20679;-80
2022/08/23 03:34:17;;;;;;;4.10;3.80;;;14.70;99.90;;;;;;5086374;28;20619;-80
2022/08/23 03:36:44;;;;;;;4.27;3.80;;;14.60;99.90;;;;;;5082184;28;21202;-80
2022/08/23 03:39:12;;;;;;;4.00;3.37;;;14.60;99.90;;;;;;5081731;28;20636;-80
2022/08/23 03:41:39;;;;;;;3.90;2.90;;;14.60;99.90;;;;;;5081201;28;20639;-80
2022/08/23 03:44:05;;;;;;;4.37;3.80;;;14.60;99.90;;;;;;5082040;28;21003;-80
2022/08/23 03:46:33;;;;;;;5.63;3.90;;;14.60;99.90;;;;;;5081706;28;20624;-82
2022/08/23 03:49:02;;;;;;;5.27;3.70;;;14.60;99.90;;;;;;5083817;28;20625;-80
2022/08/23 03:51:31;;;;;;;5.50;3.80;;;14.50;99.90;;;;;;5084082;28;20698;-80
2022/08/23 03:53:58;;;;;;;4.50;3.70;;;14.40;99.90;;;;;;5083219;28;20625;-80
2022/08/23 03:56:29;;;;;;;4.70;3.60;;;14.50;99.90;;;;;;5083095;28;20628;-80
2022/08/23 03:58:57;;;;;;;3.73;3.43;;;14.50;99.90;;;;;;5082514;28;20617;-80
2022/08/23 04:01:24;;;;;;;4.30;3.90;;;14.40;99.90;;;;;;5086517;28;20748;-80
2022/08/23 04:03:51;;;;;;;5.47;4.17;;;14.40;99.90;;;;;;5082440;28;20629;-80
2022/08/23 04:06:18;;;;;;;4.70;4.20;;;14.40;99.90;;;;;;5079116;28;20646;-81
2022/08/23 04:08:46;;;;;;;4.27;3.77;;;14.40;99.90;;;;;;5083993;28;20635;-81
2022/08/23 04:11:13;;;;;;;4.00;3.23;;;14.30;99.90;;;;;;5083028;28;20672;-81
2022/08/23 04:13:42;;;;;;;3.60;3.30;;;14.30;99.90;;;;;;5081548;28;20631;-80
2022/08/23 04:16:09;;;;;;;5.57;3.60;;;14.30;99.90;;;;;;5085703;28;20715;-81
2022/08/23 04:18:36;;;;;;;4.10;3.70;;;14.40;99.90;;;;;;5081786;28;20628;-81
2022/08/23 04:21:08;;;;;;;3.70;3.30;;;14.40;99.90;;;;;;5084162;28;20655;-81
2022/08/23 04:23:36;;;;;;;5.97;4.20;;;14.30;99.90;;;;;;5082997;28;20649;-80
2022/08/23 04:26:05;;;;;;;3.77;3.47;;;14.40;99.90;;;;;;5079507;28;21484;-80
2022/08/23 04:28:31;;;;;;;3.90;3.60;;;14.30;99.90;;;;;;5082384;28;21221;-81
2022/08/23 04:31:00;;;;;;;3.50;3.20;;;14.30;99.90;;;;;;5079600;28;20677;-80
2022/08/23 04:33:29;;;;;;;3.67;3.37;;;14.30;99.90;;;;;;5082279;28;20632;-80
2022/08/23 04:35:55;;;;;;;3.67;3.33;;;14.30;99.90;;;;;;5077755;28;20862;-81
2022/08/23 04:38:22;;;;;;;3.63;3.20;;;14.30;99.90;;;;;;5077918;28;20636;-80
2022/08/23 04:43:33;;;;;;;5.53;4.30;;;14.10;99.90;;;;;;5079613;28;20734;-80
2022/08/23 04:46:01;;;;;;;3.93;3.53;;;14.20;99.90;;;;;;5080863;28;20624;-80
2022/08/23 04:48:28;;;;;;;5.00;3.60;;;14.20;99.90;;;;;;5081616;28;20631;-80
2022/08/23 04:50:55;;;;;;;3.90;3.60;;;14.20;99.90;;;;;;5081015;28;20681;-80
2022/08/23 04:53:22;;;;;;;7.70;4.50;;;14.30;99.90;;;;;;5082330;28;20995;-80
2022/08/23 04:55:50;;;;;;;4.10;3.70;;;14.20;99.90;;;;;;5081647;28;20633;-80
2022/08/23 04:58:17;;;;;;;4.87;4.30;;;14.20;99.90;;;;;;5083331;28;20640;-79
2022/08/23 05:00:44;;;;;;;3.93;3.60;;;14.20;99.90;;;;;;5080596;28;20667;-80
2022/08/23 05:03:12;;;;;;;5.63;4.07;;;14.20;99.90;;;;;;5080846;28;20655;-80
2022/08/23 05:05:40;;;;;;;6.50;3.43;;;14.20;99.90;;;;;;5078386;28;21190;-80
2022/08/23 05:08:08;;;;;;;3.70;3.50;;;14.10;99.90;;;;;;5084251;28;20642;-79
2022/08/23 05:10:35;;;;;;;4.87;3.63;;;14.20;99.90;;;;;;5082855;28;20672;-79
2022/08/23 05:13:02;;;;;;;3.93;3.63;;;14.20;99.90;;;;;;5081583;28;20684;-79
2022/08/23 05:15:28;;;;;;;5.30;4.30;;;14.30;99.90;;;;;;5081910;28;20671;-79
2022/08/23 05:17:55;;;;;;;4.23;3.83;;;14.30;99.90;;;;;;5072672;28;20639;-79
2022/08/23 05:20:23;;;;;;;3.90;3.60;;;14.30;99.90;;;;;;5079443;28;20627;-79
2022/08/23 05:22:50;;;;;;;5.73;4.00;;;14.50;99.90;;;;;;5078879;28;21008;-78
2022/08/23 05:25:17;;;;;;;4.80;4.40;;;14.50;99.90;;;;;;5077580;28;20630;-79
2022/08/23 05:27:44;;;;;;;3.90;3.57;;;14.50;99.90;;;;;;5075266;28;20623;-79
2022/08/23 05:30:11;;;;;;;4.27;3.90;;;14.60;99.90;;;;;;5076662;28;20618;-79
2022/08/23 05:32:39;;;;;;;6.50;3.70;;;14.70;99.90;;;;;;5077873;28;20671;-79
2022/08/23 05:35:06;;;;;;;4.87;4.43;;;14.70;99.90;;;;;;5074201;28;20624;-79
2022/08/23 05:37:34;;;;;;;4.70;4.20;;;14.80;99.90;;;;;;5079840;28;20624;-79
2022/08/23 05:40:02;;;;;;;4.53;4.10;;;14.80;99.90;;;;;;5079102;28;20625;-79
2022/08/23 05:42:28;;;;;;;5.10;4.60;;;14.90;99.90;;;;;;5081369;28;20665;-79
2022/08/23 05:44:56;;;;;;;5.07;4.37;;;14.90;99.90;;;;;;5079050;28;20625;-79
2022/08/23 05:47:25;;;;;;;5.47;4.97;;;14.90;99.90;;;;;;5076882;28;20625;-78
2022/08/23 05:49:52;;;;;;;7.23;4.60;;;15.00;99.90;;;;;;5077227;28;20638;-79
2022/08/23 05:52:19;;;;;;;9.57;5.90;;;15.00;99.90;;;;;;5076086;28;20672;-78
2022/08/23 05:54:47;;;;;;;5.10;4.70;;;15.00;99.90;;;;;;5077640;28;20679;-78
2022/08/23 05:57:14;;;;;;;5.63;4.50;;;15.00;99.90;;;;;;5075515;28;21290;-79
2022/08/23 05:59:41;;;;;;;8.10;4.70;;;15.10;99.90;;;;;;5076082;28;20634;-79
2022/08/23 06:02:08;;;;;;;5.50;4.10;;;15.20;99.90;;;;;;5080680;28;20627;-79
2022/08/23 06:04:34;;;;;;;5.87;4.07;;;15.20;99.90;;;;;;5081388;28;22547;-78
2022/08/23 06:07:01;;;;;;;3.93;3.60;;;15.20;99.90;;;;;;5083420;28;20643;-78
2022/08/23 06:09:28;;;;;;;5.13;4.30;;;15.30;99.90;;;;;;5082568;28;20624;-79
2022/08/23 06:11:57;;;;;;;5.00;4.17;;;15.50;99.90;;;;;;5080464;28;20664;-78
2022/08/23 06:14:24;;;;;;;4.37;4.07;;;15.50;99.90;;;;;;5082595;28;20655;-78
2022/08/23 06:16:52;;;;;;;4.17;3.77;;;15.60;99.90;;;;;;5081667;28;20629;-78
2022/08/23 06:19:19;;;;;;;4.40;4.00;;;15.70;99.90;;;;;;5080393;28;20647;-78
2022/08/23 06:21:46;;;;;;;4.23;3.90;;;15.80;99.90;;;;;;5082692;28;20612;-78
2022/08/23 06:24:14;;;;;;;5.07;3.97;;;16.00;99.90;;;;;;5080286;28;20675;-79
2022/08/23 06:26:44;;;;;;;6.67;4.33;;;16.10;99.90;;;;;;5078923;28;20711;-78
2022/08/23 06:29:14;;;;;;;4.67;4.30;;;16.10;99.90;;;;;;5082585;28;20632;-78
2022/08/23 06:31:46;;;;;;;4.40;4.00;;;16.30;99.90;;;;;;5078821;28;20667;-78
2022/08/23 06:34:18;;;;;;;8.23;4.20;;;16.50;99.90;;;;;;5081620;28;20688;-79
2022/08/23 06:36:46;;;;;;;5.70;4.13;;;16.50;99.90;;;;;;5080858;28;20636;-79
2022/08/23 06:39:13;;;;;;;6.17;4.37;;;16.60;99.90;;;;;;5078604;28;21280;-79
2022/08/23 06:41:40;;;;;;;4.53;4.13;;;16.70;99.90;;;;;;5077291;28;20616;-79
2022/08/23 06:44:08;;;;;;;4.73;3.93;;;16.80;99.90;;;;;;5083649;28;20648;-79
2022/08/23 06:46:37;;;;;;;6.03;4.87;;;16.90;99.90;;;;;;5082137;28;20624;-79
2022/08/23 06:49:05;;;;;;;5.67;4.60;;;16.90;99.90;;;;;;5082130;28;20652;-79
2022/08/23 06:51:34;;;;;;;6.10;5.50;;;17.10;99.90;;;;;;5081393;28;20668;-79
2022/08/23 06:54:08;;;;;;;5.53;4.30;;;17.20;99.90;;;;;;5085605;28;20672;-79
2022/08/23 06:56:36;;;;;;;4.70;4.00;;;17.30;99.90;;;;;;5083163;28;20631;-79
2022/08/23 06:59:05;;;;;;;5.17;4.67;;;17.40;99.90;;;;;;5078766;28;20952;-79
2022/08/23 07:01:34;;;;;;;7.63;4.60;;;17.60;99.90;;;;;;5082185;28;20711;-79
2022/08/23 07:04:05;;;;;;;5.33;3.70;;;17.60;99.90;;;;;;5080609;28;20660;-79
2022/08/23 07:06:32;;;;;;;7.83;3.83;;;17.80;99.90;;;;;;5082092;28;21216;-79
2022/08/23 07:08:59;;;;;;;6.03;3.97;;;17.90;99.90;;;;;;5082120;28;20739;-79
2022/08/23 07:11:28;;;;;;;4.20;3.80;;;18.00;99.90;;;;;;5079670;28;20708;-79
2022/08/23 07:13:55;;;;;;;4.10;3.70;;;18.10;99.90;;;;;;5080283;28;21066;-79
2022/08/23 07:16:22;;;;;;;10.00;4.23;;;18.20;99.90;;;;;;5080099;28;20629;-79
2022/08/23 07:18:50;;;;;;;6.23;3.60;;;18.40;99.90;;;;;;5078217;28;21214;-79
2022/08/23 07:21:19;;;;;;;4.27;3.87;;;18.50;99.90;;;;;;5078251;28;20631;-79
2022/08/23 07:23:46;;;;;;;7.67;4.20;;;18.60;99.90;;;;;;5080723;28;21046;-78
2022/08/23 07:26:14;;;;;;;4.53;3.83;;;18.70;99.90;;;;;;5079456;28;20971;-79
2022/08/23 07:28:42;;;;;;;6.20;4.53;;;18.80;99.90;;;;;;5082508;28;20619;-79
2022/08/23 07:31:13;;;;;;;8.00;3.30;;;18.90;99.90;;;;;;5080176;28;21237;-79
2022/08/23 07:33:41;;;;;;;6.43;4.00;;;19.00;99.90;;;;;;5077652;28;20648;-79
2022/08/23 07:36:09;;;;;;;8.43;3.80;;;19.10;99.90;;;;;;5081878;28;20632;-79
2022/08/23 07:38:37;;;;;;;9.80;3.60;;;19.30;99.90;;;;;;5080320;28;20995;-79
2022/08/23 07:41:05;;;;;;;11.13;4.17;;;19.40;99.90;;;;;;5079687;28;20621;-78
2022/08/23 07:43:33;;;;;;;5.53;3.77;;;19.50;99.90;;;;;;5080517;28;20656;-79
2022/08/23 07:46:00;;;;;;;8.40;3.90;;;19.60;99.90;;;;;;5079579;28;20621;-79
2022/08/23 07:48:27;;;;;;;6.83;3.63;;;19.70;99.90;;;;;;5083415;28;21275;-79
2022/08/23 07:50:56;;;;;;;4.30;3.50;;;19.70;99.90;;;;;;5079387;28;20628;-79
2022/08/23 07:53:23;;;;;;;5.90;4.03;;;19.80;99.90;;;;;;5080595;28;20754;-79
2022/08/23 07:55:52;;;;;;;7.27;4.30;;;19.90;99.90;;;;;;5078013;28;20623;-79
2022/08/23 07:58:19;;;;;;;8.40;4.03;;;20.00;99.90;;;;;;5081647;28;20631;-79
2022/08/23 08:00:47;;;;;;;6.97;4.17;;;20.10;99.90;;;;;;5081366;28;20620;-79
2022/08/23 08:03:15;;;;;;;3.60;3.30;;;20.30;99.90;;;;;;5080627;28;20644;-79
2022/08/23 08:05:42;;;;;;;6.07;3.90;;;20.40;99.90;;;;;;5075585;28;20631;-78
2022/08/23 08:08:10;;;;;;;3.37;2.70;;;20.50;99.90;;;;;;5081947;28;20995;-79
2022/08/23 08:10:39;;;;;;;3.50;3.17;;;20.70;99.90;;;;;;5079525;28;21063;-80
2022/08/23 08:13:08;;;;;;;8.63;3.67;;;20.80;99.90;;;;;;5079519;28;21078;-78
2022/08/23 08:15:39;;;;;;;4.10;3.10;;;20.90;99.90;;;;;;5078369;28;21073;-79
2022/08/23 08:18:06;;;;;;;4.27;3.70;;;20.90;99.90;;;;;;5080207;28;20616;-79
2022/08/23 08:20:35;;;;;;;5.00;3.10;;;21.10;99.90;;;;;;5079897;28;20635;-79
2022/08/23 08:23:03;;;;;;;3.20;2.90;;;21.20;99.90;;;;;;5080272;28;20657;-78
2022/08/23 08:25:32;;;;;;;5.87;3.43;;;21.30;99.90;;;;;;5077070;28;20686;-78
2022/08/23 08:28:00;;;;;;;7.77;3.30;;;21.40;99.30;;;;;;5080826;28;21016;-78
2022/08/23 08:30:29;;;;;;;3.83;2.63;;;21.50;99.60;;;;;;5080430;28;20628;-78
2022/08/23 08:32:56;;;;;;;2.30;2.20;;;21.60;99.90;;;;;;5076403;28;20676;-78
2022/08/23 08:35:23;;;;;;;3.00;2.53;;;21.70;99.70;;;;;;5079543;28;20629;-79
2022/08/23 08:37:51;;;;;;;3.07;2.67;;;21.80;98.50;;;;;;5082422;28;20624;-79
2022/08/23 08:40:36;;;;;;;3.60;3.00;;;21.90;98.00;;;;;;5078525;28;20719;-79
2022/08/23 08:43:18;;;;;;;2.97;2.60;;;22.00;97.80;;;;;;5079757;28;20652;-79
2022/08/23 08:45:58;;;;;;;7.33;2.83;;;22.20;96.70;;;;;;5076230;28;20637;-79
2022/08/23 08:48:26;;;;;;;2.77;2.50;;;22.30;97.20;;;;;;5082461;28;20642;-79
2022/08/23 08:50:57;;;;;;;3.93;2.80;;;22.40;97.00;;;;;;5074541;28;20633;-79
2022/08/23 08:53:34;;;;;;;3.40;2.60;;;22.40;96.40;;;;;;5075225;28;20695;-79
2022/08/23 08:56:06;;;;;;;2.40;2.20;;;22.60;96.20;;;;;;5086930;28;21191;-78
2022/08/23 08:58:41;;;;;;;4.80;2.83;;;22.70;94.70;;;;;;5073915;28;20624;-79
2022/08/23 09:01:09;;;;;;;2.43;2.20;;;22.70;93.50;;;;;;5080686;28;20640;-79
2022/08/23 09:03:36;;;;;;;2.20;2.07;;;22.90;92.60;;;;;;5075303;28;20648;-80
2022/08/23 09:06:14;;;;;;;6.27;2.67;;;23.00;92.80;;;;;;5077207;28;20631;-81
2022/08/23 09:09:02;;;;;;;4.90;2.23;;;23.10;92.50;;;;;;5076733;28;20596;-81
2022/08/23 09:11:45;;;;;;;3.33;2.27;;;23.20;90.90;;;;;;5079138;28;20635;-79
2022/08/23 09:14:34;;;;;;;3.03;2.30;;;23.30;90.70;;;;;;5076572;28;20678;-78
2022/08/23 09:17:04;;;;;;;5.20;2.80;;;23.30;90.70;;;;;;5076965;28;20628;-81
2022/08/23 09:19:35;;;;;;;4.53;2.70;;;23.50;90.30;;;;;;5077291;28;21001;-81
2022/08/23 09:22:06;;;;;;;3.17;2.50;;;23.60;88.00;;;;;;5078794;28;20613;-81
2022/08/23 09:24:33;;;;;;;1.97;1.77;;;23.70;90.10;;;;;;5075720;28;20647;-81
2022/08/23 09:27:00;;;;;;;2.83;2.40;;;23.80;89.50;;;;;;5075287;28;20724;-81
2022/08/23 09:29:29;;;;;;;3.40;2.20;;;23.90;88.40;;;;;;5084584;28;20604;-79
2022/08/23 09:32:00;;;;;;;3.43;2.23;;;24.00;88.30;;;;;;5076554;28;20629;-80
2022/08/23 09:34:42;;;;;;;2.23;2.10;;;24.10;86.50;;;;;;5078142;28;20655;-80
2022/08/23 09:37:17;;;;;;;3.73;2.23;;;24.20;84.90;;;;;;5078004;28;20698;-80
2022/08/23 09:39:48;;;;;;;3.10;2.80;;;24.30;86.70;;;;;;5069108;28;20635;-80
2022/08/23 09:42:28;;;;;;;3.40;2.17;;;24.40;84.50;;;;;;5083567;28;20620;-80
2022/08/23 09:44:56;;;;;;;4.47;1.73;;;24.40;82.00;;;;;;5075761;28;20640;-80
2022/08/23 09:47:33;;;;;;;2.47;2.27;;;24.50;82.00;;;;;;5074547;28;20601;-80
2022/08/23 09:50:10;;;;;;;2.20;2.00;;;24.60;79.60;;;;;;5078064;28;20625;-80
2022/08/23 09:52:38;;;;;;;4.00;2.47;;;24.80;76.50;;;;;;5079873;28;21324;-80
2022/08/23 09:55:09;;;;;;;4.20;1.70;;;24.80;77.80;;;;;;5079532;28;20643;-80
2022/08/23 09:57:36;;;;;;;3.00;2.10;;;25.00;78.50;;;;;;5076666;28;20663;-81
2022/08/23 10:00:26;;;;;;;3.67;1.80;;;25.00;76.90;;;;;;5074616;28;20629;-80
2022/08/23 10:02:56;;;;;;;3.10;1.97;;;25.10;76.30;;;;;;5081200;28;20645;-80
2022/08/23 10:05:35;;;;;;;4.00;2.37;;;25.20;76.90;;;;;;5074877;28;20701;-80
2022/08/23 10:08:04;;;;;;;2.10;1.90;;;25.40;74.20;;;;;;5077999;28;20631;-80
2022/08/23 10:10:35;;;;;;;3.10;2.10;;;25.40;72.60;;;;;;5079213;28;20635;-80
2022/08/23 10:13:04;;;;;;;2.27;1.70;;;25.50;71.10;;;;;;5074550;28;20677;-81
2022/08/23 10:15:51;;;;;;;1.80;1.70;;;25.70;70.80;;;;;;5075804;28;20995;-81
2022/08/23 10:18:28;;;;;;;2.50;1.80;;;25.90;69.90;;;;;;5074472;28;20643;-81
2022/08/23 10:21:04;;;;;;;4.87;2.07;;;26.00;68.30;;;;;;5078740;28;20954;-80
2022/08/23 10:23:41;;;;;;;2.47;1.70;;;26.10;65.90;;;;;;5077361;28;20640;-80
2022/08/23 10:26:14;;;;;;;2.07;1.60;;;26.30;64.60;;;;;;5076715;28;20651;-80
2022/08/23 10:31:39;;;;;;;2.93;1.70;;;26.60;63.00;;;;;;5076332;28;20601;-80
2022/08/23 10:34:27;;;;;;;4.30;2.37;;;26.80;63.50;;;;;;5078811;28;20675;-80
2022/08/23 10:37:07;;;;;;;3.53;2.47;;;27.00;63.00;;;;;;5074075;28;20621;-80
2022/08/23 10:39:34;;;;;;;2.73;2.30;;;27.30;62.10;;;;;;5078946;28;20624;-80
2022/08/23 10:42:07;;;;;;;2.07;1.97;;;27.50;62.00;;;;;;5080936;28;20624;-80
2022/08/23 10:44:39;;;;;;;2.60;2.00;;;27.70;61.00;;;;;;5080756;28;20652;-81
2022/08/23 10:47:16;;;;;;;2.60;2.00;;;28.00;61.50;;;;;;5080393;28;21190;-80
2022/08/23 10:49:45;;;;;;;5.80;2.27;;;28.20;58.70;;;;;;5080441;28;21022;-80
2022/08/23 10:52:23;;;;;;;2.87;2.13;;;28.20;58.50;;;;;;5079143;28;20660;-80
2022/08/23 10:54:59;;;;;;;2.70;2.50;;;28.50;60.20;;;;;;5079033;28;21239;-80
2022/08/23 10:57:33;;;;;;;4.53;2.10;;;28.70;57.30;;;;;;5082924;28;20658;-81
2022/08/23 11:00:01;;;;;;;4.97;2.00;;;28.80;56.80;;;;;;5076412;28;20616;-80
2022/08/23 11:02:38;;;;;;;2.50;2.03;;;28.90;56.90;;;;;;5082767;28;21058;-79
2022/08/23 11:05:08;;;;;;;2.60;2.10;;;29.20;56.90;;;;;;5080568;28;22315;-80
2022/08/23 11:07:40;;;;;;;2.43;2.23;;;29.40;55.90;;;;;;5077177;28;21199;-79
2022/08/23 11:10:15;;;;;;;4.20;2.17;;;29.50;55.90;;;;;;5080101;28;20670;-78
2022/08/23 11:12:54;;;;;;;4.30;2.10;;;29.60;54.40;;;;;;5078047;28;20663;-79
2022/08/23 11:15:42;;;;;;;2.70;1.80;;;29.90;54.20;;;;;;5077947;28;20625;-79
2022/08/23 11:18:12;;;;;;;2.73;1.80;;;30.10;53.80;;;;;;5082333;28;20631;-79
2022/08/23 11:21:04;;;;;;;4.30;2.13;;;30.20;53.60;;;;;;5082743;28;20665;-79
2022/08/23 11:23:46;;;;;;;2.30;2.20;;;30.40;52.90;;;;;;5080091;28;21116;-80
2022/08/23 11:27:04;;;;;;;3.60;2.23;;;30.60;53.20;;;;;;5079117;28;20973;-79
2022/08/23 11:29:36;;;;;;;1.87;1.77;;;31.00;52.40;;;;;;5080060;28;20674;-79
2022/08/23 11:32:19;;;;;;;2.70;2.27;;;31.30;51.30;;;;;;5079682;28;20609;-80
2022/08/23 11:34:56;;;;;;;2.90;2.20;;;31.70;51.90;;;;;;5080359;28;20654;-79
2022/08/23 11:37:26;;;;;;;2.97;2.40;;;31.90;49.80;;;;;;5078035;28;20624;-79
2022/08/23 11:40:08;;;;;;;2.83;2.10;;;32.00;48.40;;;;;;5078146;28;20641;-80
2022/08/23 11:42:49;;;;;;;6.47;2.97;;;32.20;48.70;;;;;;5080209;28;20623;-79
2022/08/23 11:45:28;;;;;;;5.73;2.10;;;32.30;47.90;;;;;;5082462;28;20621;-79
2022/08/23 11:48:12;;;;;;;2.50;2.13;;;32.50;47.90;;;;;;5080507;28;20655;-80
2022/08/23 11:51:01;;;;;;;2.20;2.00;;;32.60;47.00;;;;;;5078541;28;20623;-80
2022/08/23 11:53:43;;;;;;;4.77;2.13;;;32.80;46.50;;;;;;5081140;28;20682;-79
2022/08/23 11:56:40;;;;;;;2.40;2.20;;;33.10;46.00;;;;;;5075850;28;20977;-79
2022/08/23 11:59:25;;;;;;;3.03;2.50;;;33.20;45.70;;;;;;5077999;28;20727;-79
2022/08/23 12:01:52;;;;;;;2.07;1.80;;;33.40;45.90;;;;;;5078161;28;20693;-79
2022/08/23 12:04:36;;;;;;;2.10;2.00;;;33.20;45.60;;;;;;5080079;28;20648;-80
2022/08/23 12:07:11;;;;;;;6.97;2.33;;;33.70;46.80;;;;;;5079454;28;20651;-80
2022/08/23 12:09:54;;;;;;;5.30;2.00;;;34.00;44.40;;;;;;5079640;28;21029;-79
2022/08/23 12:12:34;;;;;;;2.73;2.53;;;34.20;43.60;;;;;;5077576;28;20627;-80
2022/08/23 12:15:04;;;;;;;2.43;2.00;;;34.40;43.10;;;;;;5077466;28;20612;-80
2022/08/23 12:18:08;;;;;;;3.40;2.30;;;34.40;42.70;;;;;;5078303;28;20636;-79
2022/08/23 12:20:39;;;;;;;2.90;2.13;;;34.10;43.10;;;;;;5077037;28;21047;-80
2022/08/23 12:23:16;;;;;;;2.60;2.03;;;34.70;43.30;;;;;;5077692;28;20971;-80
2022/08/23 12:25:43;;;;;;;3.17;1.80;;;35.20;41.90;;;;;;5075056;28;20634;-79
2022/08/23 12:28:30;;;;;;;3.07;2.33;;;35.20;41.20;;;;;;5080009;28;20763;-80
2022/08/23 12:31:03;;;;;;;2.63;1.70;;;35.50;41.30;;;;;;5077163;28;20210;-80
2022/08/23 12:33:41;;;;;;;2.10;2.00;;;35.60;40.20;;;;;;5078503;28;20246;-80
2022/08/23 12:36:17;;;;;;;2.27;2.07;;;35.60;40.40;;;;;;5081303;28;20228;-80
2022/08/23 12:38:57;;;;;;;2.20;2.00;;;35.40;41.00;;;;;;5080926;28;20312;-79
2022/08/23 12:41:28;;;;;;;2.37;2.17;;;35.60;40.40;;;;;;5075851;28;20202;-79
2022/08/23 12:44:02;;;;;;;2.40;2.07;;;35.90;39.50;;;;;;5077854;28;20246;-79
2022/08/23 12:46:33;;;;;;;2.60;2.30;;;35.90;38.90;;;;;;5082601;28;20205;-79
2022/08/23 12:49:00;;;;;;;4.05;2.10;;;36.20;38.20;;;;;;5077083;28;20242;-79
2022/08/23 12:51:28;;;;;;;3.92;2.03;;;36.20;38.10;;;;;;5077520;28;20198;-79
2022/08/23 12:53:55;;;;;;;2.95;2.30;;;36.10;37.60;;;;;;5079792;28;20226;-79
2022/08/23 12:56:26;;;;;;;2.95;2.17;;;36.20;37.70;;;;;;5077315;28;20208;-79
2022/08/23 12:58:57;;;;;;;2.10;1.90;;;36.20;38.00;;;;;;5076015;28;20236;-79
2022/08/23 13:01:28;;;;;;;2.10;1.90;;;36.20;36.70;;;;;;5078470;28;20657;-79
2022/08/23 13:04:01;;;;;;;2.40;2.20;;;36.20;36.70;;;;;;5077210;28;20214;-79
2022/08/23 13:06:31;;;;;;;2.47;2.28;;;36.30;36.80;;;;;;5077434;28;20247;-79
2022/08/23 13:09:03;;;;;;;2.33;1.90;;;36.40;36.40;;;;;;5078251;28;20204;-79
2022/08/23 13:11:32;;;;;;;2.10;1.90;;;36.50;36.00;;;;;;5077597;28;20202;-79
2022/08/23 13:14:01;;;;;;;2.55;2.00;;;36.90;36.20;;;;;;5076691;28;20325;-79
2022/08/23 13:16:32;;;;;;;2.58;2.38;;;37.20;35.80;;;;;;5071905;28;20248;-79
2022/08/23 13:19:16;;;;;;;2.28;2.08;;;37.40;35.00;;;;;;5076646;28;20204;-79